Time;durP1;ratioP1;P1;durP2;ratioP2;P2;SDS_P1;SDS_P2;PMS_P1;PMS_P2;Temp;Humidity;BMP_temperature;BMP_pressure;BME280_temperature;BME280_humidity;BME280_pressure;Samples;Min_cycle;Max_cycle;Signal;HPM_P1;HPM_P2
2021/06/29 00:00:59;;;;;;;4.28;3.80;;;;;;;37.90;21.10;94644.72;5151288;27;20421;-62
2021/06/29 00:03:58;;;;;;;3.78;3.47;;;;;;;37.70;21.41;94647.88;5195640;27;20382;-68
2021/06/29 00:06:57;;;;;;;4.32;3.58;;;;;;;37.37;21.25;94642.25;5194440;27;20851;-68
2021/06/29 00:10:01;;;;;;;3.90;3.60;;;;;;;37.70;21.01;94641.66;5147682;27;20558;-65
2021/06/29 00:13:09;;;;;;;3.97;3.67;;;;;;;37.62;21.33;94646.66;5134310;27;20428;-63
2021/06/29 00:16:06;;;;;;;4.53;3.80;;;;;;;37.72;21.74;94645.47;5183409;27;20382;-65
2021/06/29 00:19:04;;;;;;;4.30;3.90;;;;;;;37.32;22.10;94638.19;5193467;27;20809;-69
2021/06/29 00:22:04;;;;;;;4.00;3.70;;;;;;;37.40;21.85;94635.16;5195707;27;20382;-65
2021/06/29 00:25:06;;;;;;;3.78;3.47;;;;;;;37.73;21.49;94630.63;5128196;27;20451;-65
2021/06/29 00:28:20;;;;;;;4.35;3.83;;;;;;;37.45;21.37;94632.56;5123736;27;20404;-65
2021/06/29 00:31:25;;;;;;;4.72;3.83;;;;;;;37.88;20.89;94623.34;5073405;28;20318;-67
2021/06/29 00:34:22;;;;;;;6.25;3.65;;;;;;;37.64;21.61;94633.34;5121328;27;20402;-64
2021/06/29 00:37:17;;;;;;;4.20;3.75;;;;;;;37.41;21.36;94631.97;5123414;27;20409;-67
2021/06/29 00:40:22;;;;;;;4.05;3.65;;;;;;;37.33;21.77;94636.97;5148112;27;20447;-64
2021/06/29 00:43:17;;;;;;;3.95;3.65;;;;;;;37.19;21.79;94634.78;5124253;27;20404;-64
2021/06/29 00:46:17;;;;;;;4.35;3.95;;;;;;;37.27;21.87;94632.56;5195426;27;20378;-68
2021/06/29 00:49:24;;;;;;;4.10;3.70;;;;;;;37.41;21.66;94634.69;5134839;27;20814;-61
2021/06/29 00:52:23;;;;;;;5.20;4.03;;;;;;;37.80;21.40;94641.25;5195542;27;20378;-59
2021/06/29 00:55:17;;;;;;;4.50;3.70;;;;;;;37.74;21.47;94634.13;5123291;27;20902;-63
2021/06/29 00:58:15;;;;;;;4.88;4.00;;;;;;;37.24;21.82;94631.47;5195128;27;20419;-58
2021/06/29 01:01:15;;;;;;;3.95;3.58;;;;;;;37.40;21.14;94629.69;5131568;27;20837;-59
2021/06/29 01:04:13;;;;;;;4.32;3.70;;;;;;;37.30;21.52;94628.94;5121457;27;20408;-66
2021/06/29 01:07:13;;;;;;;5.07;3.53;;;;;;;37.08;21.74;94634.47;5194870;27;20418;-64
2021/06/29 01:10:27;;;;;;;4.05;3.42;;;;;;;37.29;21.68;94641.81;5151158;27;20802;-65
2021/06/29 01:13:34;;;;;;;5.20;3.60;;;;;;;37.09;22.17;94633.25;5128970;27;20409;-60
2021/06/29 01:16:34;;;;;;;3.65;3.30;;;;;;;36.99;22.14;94639.91;5195328;27;20370;-63
2021/06/29 01:19:48;;;;;;;4.97;3.60;;;;;;;36.83;22.11;94642.88;5147875;27;20532;-58
2021/06/29 01:23:03;;;;;;;3.97;3.50;;;;;;;36.98;22.20;94627.50;5151288;27;20450;-68
2021/06/29 01:26:14;;;;;;;4.90;3.33;;;;;;;36.52;22.47;94630.03;5127922;27;20730;-67
2021/06/29 01:29:13;;;;;;;4.30;3.53;;;;;;;36.78;22.41;94629.84;5195402;27;20711;-65
2021/06/29 01:32:14;;;;;;;4.72;4.22;;;;;;;36.63;22.55;94630.38;5195586;27;20850;-64
2021/06/29 01:35:24;;;;;;;4.75;3.78;;;;;;;36.44;22.64;94624.13;5151131;27;20386;-62
2021/06/29 01:38:23;;;;;;;4.97;3.38;;;;;;;36.19;22.68;94626.22;5195259;27;20921;-61
2021/06/29 01:41:24;;;;;;;5.20;3.83;;;;;;;36.44;22.53;94628.81;5121706;27;20401;-64
2021/06/29 01:44:26;;;;;;;4.65;3.55;;;;;;;36.11;22.97;94633.88;5123832;27;20911;-64
2021/06/29 01:50:41;;;;;;;4.75;3.50;;;;;;;36.85;22.22;94629.56;5195693;27;20390;-68
2021/06/29 01:53:40;;;;;;;6.13;4.00;;;;;;;36.40;22.51;94628.16;5195539;27;20413;-68
2021/06/29 01:56:41;;;;;;;7.28;3.58;;;;;;;36.13;22.91;94632.22;5114100;27;20903;-67
2021/06/29 01:59:44;;;;;;;6.03;3.78;;;;;;;36.66;22.63;94629.47;5195107;27;20748;-61
2021/06/29 02:02:42;;;;;;;4.28;3.75;;;;;;;36.30;22.51;94624.66;5195653;27;20378;-66
2021/06/29 02:05:41;;;;;;;5.05;3.60;;;;;;;35.95;23.26;94632.13;5195067;27;20473;-68
2021/06/29 02:08:40;;;;;;;4.07;3.10;;;;;;;36.21;22.82;94626.53;5194908;27;20695;-63
2021/06/29 02:11:40;;;;;;;3.63;3.20;;;;;;;36.29;22.47;94635.94;5195564;27;20386;-68
2021/06/29 02:14:40;;;;;;;4.20;3.80;;;;;;;35.80;23.34;94626.41;5128406;27;20410;-66
2021/06/29 02:17:39;;;;;;;5.63;3.33;;;;;;;36.03;22.78;94630.66;5194818;27;20405;-64
2021/06/29 02:20:43;;;;;;;4.40;3.63;;;;;;;36.05;23.02;94630.97;5033195;28;20502;-62
2021/06/29 02:23:46;;;;;;;3.95;3.60;;;;;;;35.82;23.03;94631.41;5147938;27;20462;-63
2021/06/29 02:26:57;;;;;;;4.47;3.72;;;;;;;36.17;22.85;94625.91;5151044;27;20445;-66
2021/06/29 02:29:57;;;;;;;4.03;3.63;;;;;;;35.67;23.39;94630.41;5195536;27;20386;-66
2021/06/29 02:32:56;;;;;;;7.75;3.92;;;;;;;36.18;22.54;94622.00;5193669;27;20839;-67
2021/06/29 02:35:54;;;;;;;3.70;3.22;;;;;;;36.13;22.47;94626.78;5121258;27;20413;-65
2021/06/29 02:38:52;;;;;;;3.83;3.45;;;;;;;36.26;22.71;94631.41;5120865;27;20914;-65
2021/06/29 02:41:50;;;;;;;4.28;3.38;;;;;;;35.49;23.56;94634.47;5112521;27;20323;-68
2021/06/29 02:45:00;;;;;;;4.78;3.90;;;;;;;35.59;23.18;94638.03;5148057;27;20579;-67
2021/06/29 02:48:15;;;;;;;4.53;3.90;;;;;;;35.66;23.20;94637.81;5150959;27;20332;-65
2021/06/29 02:51:13;;;;;;;4.15;3.75;;;;;;;35.66;23.23;94631.59;5195712;27;20386;-68
2021/06/29 02:54:17;;;;;;;4.10;3.70;;;;;;;36.03;22.87;94632.63;5073171;28;20515;-68
2021/06/29 02:57:27;;;;;;;5.82;3.75;;;;;;;35.56;23.38;94627.28;5151148;27;20465;-69
2021/06/29 03:00:26;;;;;;;5.07;3.92;;;;;;;35.64;23.46;94639.41;5195637;27;20419;-67
2021/06/29 03:03:24;;;;;;;5.97;4.00;;;;;;;36.11;22.73;94645.53;5195743;27;20414;-64
2021/06/29 03:06:23;;;;;;;5.95;3.80;;;;;;;36.10;22.78;94644.00;5195087;27;20390;-66
2021/06/29 03:09:21;;;;;;;4.25;3.70;;;;;;;36.03;22.76;94644.28;5195253;27;20723;-68
2021/06/29 03:12:20;;;;;;;5.00;3.95;;;;;;;36.05;22.73;94641.88;5195681;27;20370;-68
2021/06/29 03:15:18;;;;;;;4.70;3.95;;;;;;;36.06;22.80;94635.22;5195585;27;20825;-69
2021/06/29 03:18:22;;;;;;;5.13;4.10;;;;;;;35.39;23.48;94640.25;5195313;27;20447;-68
2021/06/29 03:21:26;;;;;;;8.90;4.40;;;;;;;35.88;23.04;94642.50;5148209;27;20416;-67
2021/06/29 03:24:27;;;;;;;6.13;4.13;;;;;;;35.60;23.51;94636.06;5128729;27;20407;-66
2021/06/29 03:27:26;;;;;;;6.18;4.18;;;;;;;36.11;22.73;94634.63;5195331;27;20378;-69
2021/06/29 03:30:26;;;;;;;6.32;4.13;;;;;;;35.53;23.63;94635.13;5112603;27;20327;-69
2021/06/29 03:33:25;;;;;;;4.70;3.90;;;;;;;36.05;22.90;94633.69;5195634;27;20868;-65
2021/06/29 03:36:23;;;;;;;5.35;4.30;;;;;;;35.94;23.12;94636.06;5195245;27;20378;-65
2021/06/29 03:39:18;;;;;;;5.72;4.32;;;;;;;36.08;22.90;94640.22;5123512;27;20412;-66
2021/06/29 03:42:16;;;;;;;6.32;4.35;;;;;;;36.10;22.91;94643.25;5195569;27;20866;-61
2021/06/29 03:45:18;;;;;;;4.90;4.40;;;;;;;35.76;23.05;94646.78;5082491;28;20428;-60
2021/06/29 03:48:15;;;;;;;5.45;4.15;;;;;;;36.02;22.55;94653.63;5121374;27;20409;-70
2021/06/29 03:51:14;;;;;;;11.20;4.50;;;;;;;37.44;21.02;94657.56;5089264;28;20356;-64
2021/06/29 03:54:18;;;;;;;5.60;4.60;;;;;;;36.99;21.35;94656.25;5147224;27;20398;-64
2021/06/29 03:57:17;;;;;;;7.07;5.20;;;;;;;37.45;20.90;94648.16;5121835;27;20358;-59
2021/06/29 04:00:25;;;;;;;5.93;4.90;;;;;;;37.32;21.21;94651.81;5134707;27;20846;-56
2021/06/29 04:03:22;;;;;;;6.40;5.43;;;;;;;37.33;21.53;94656.03;5195201;27;20798;-56
2021/06/29 04:06:36;;;;;;;7.60;5.18;;;;;;;37.29;21.74;94657.41;5047453;28;19986;-71
2021/06/29 04:09:40;;;;;;;8.40;5.28;;;;;;;37.77;21.21;94663.97;5128689;27;20904;-69
2021/06/29 04:12:38;;;;;;;6.93;5.90;;;;;;;37.60;21.62;94665.47;5195434;27;20777;-69
2021/06/29 04:15:49;;;;;;;10.48;5.50;;;;;;;37.58;21.27;94662.44;5151382;27;20432;-70
2021/06/29 04:18:48;;;;;;;7.40;4.82;;;;;;;37.54;21.36;94656.38;5132760;27;20335;-69
2021/06/29 04:21:47;;;;;;;9.95;5.22;;;;;;;37.91;21.20;94655.16;5195269;27;20868;-69
2021/06/29 04:24:45;;;;;;;10.35;5.30;;;;;;;37.84;21.89;94655.47;5195623;27;20711;-69
2021/06/29 04:27:44;;;;;;;9.10;5.40;;;;;;;37.90;21.64;94648.19;5195494;27;20386;-48
2021/06/29 04:30:42;;;;;;;6.28;5.40;;;;;;;39.22;19.56;94655.09;5185944;27;20388;-46
2021/06/29 04:33:41;;;;;;;7.68;4.95;;;;;;;37.27;21.95;94655.13;5195199;27;20378;-48
2021/06/29 04:36:40;;;;;;;7.28;5.15;;;;;;;39.03;20.35;94655.16;5081572;28;20345;-49
2021/06/29 04:39:37;;;;;;;9.77;5.57;;;;;;;39.12;20.28;94652.41;5185499;27;20419;-51
2021/06/29 04:42:36;;;;;;;6.82;5.32;;;;;;;38.78;20.33;94661.84;5105581;27;20646;-50
2021/06/29 04:45:34;;;;;;;6.20;5.20;;;;;;;39.41;19.67;94661.97;5194337;27;20390;-49
2021/06/29 04:48:36;;;;;;;8.88;5.43;;;;;;;39.39;19.56;94654.22;5194913;27;20822;-49
2021/06/29 04:51:36;;;;;;;5.72;4.80;;;;;;;39.22;20.11;94655.09;5128141;27;20415;-49
2021/06/29 04:54:34;;;;;;;5.72;4.75;;;;;;;39.31;19.99;94652.31;5195584;27;20426;-50
2021/06/29 04:57:34;;;;;;;9.13;4.85;;;;;;;39.72;19.46;94654.16;5127928;27;20407;-49
2021/06/29 05:00:33;;;;;;;6.10;4.40;;;;;;;39.51;19.72;94652.50;5195335;27;20469;-50
2021/06/29 05:03:31;;;;;;;7.82;4.35;;;;;;;39.82;19.85;94654.06;5195505;27;20876;-51
2021/06/29 05:06:31;;;;;;;7.40;4.82;;;;;;;39.77;19.49;94656.22;5111869;27;20355;-50
2021/06/29 05:09:30;;;;;;;6.03;3.92;;;;;;;39.65;19.63;94667.44;5195476;27;20386;-50
2021/06/29 05:12:40;;;;;;;4.85;4.35;;;;;;;39.86;19.36;94658.16;5135419;27;20682;-49
2021/06/29 05:15:53;;;;;;;10.98;4.22;;;;;;;39.39;19.97;94659.69;5150956;27;20420;-51
2021/06/29 05:18:49;;;;;;;4.45;4.05;;;;;;;39.36;19.80;94663.38;5123671;27;20410;-51
2021/06/29 05:22:03;;;;;;;7.45;4.18;;;;;;;38.56;20.67;94659.31;5048757;28;20569;-51
2021/06/29 05:25:02;;;;;;;5.68;4.22;;;;;;;39.33;20.06;94661.56;5121607;27;20410;-51
2021/06/29 05:28:00;;;;;;;5.40;4.45;;;;;;;39.01;20.75;94662.31;5195469;27;20695;-49
2021/06/29 05:31:02;;;;;;;6.80;5.00;;;;;;;38.36;21.29;94653.59;5075372;28;20009;-50
2021/06/29 05:34:00;;;;;;;6.13;4.50;;;;;;;38.23;21.35;94651.03;5195645;27;20382;-49
2021/06/29 05:36:58;;;;;;;7.63;4.72;;;;;;;40.41;19.28;94656.91;5121108;27;20468;-54
2021/06/29 05:39:56;;;;;;;4.80;4.30;;;;;;;40.07;19.35;94656.28;5175657;27;20391;-50
2021/06/29 05:42:55;;;;;;;6.43;4.57;;;;;;;40.45;18.96;94662.94;5195193;27;20817;-48
2021/06/29 05:45:54;;;;;;;9.20;4.55;;;;;;;40.26;18.88;94657.63;5193410;27;21028;-48
2021/06/29 05:48:53;;;;;;;7.80;4.65;;;;;;;40.40;19.11;94660.88;5195378;27;20700;-49
2021/06/29 05:51:51;;;;;;;6.07;4.35;;;;;;;40.27;19.27;94661.88;5121180;27;20906;-51
2021/06/29 05:54:51;;;;;;;6.25;4.53;;;;;;;40.32;19.16;94666.69;5195629;27;20843;-49
2021/06/29 05:57:49;;;;;;;5.13;4.47;;;;;;;40.54;18.65;94665.56;5195454;27;20382;-50
2021/06/29 06:00:48;;;;;;;6.05;5.07;;;;;;;40.56;18.56;94669.34;5183895;27;20471;-53
2021/06/29 06:03:47;;;;;;;9.60;5.90;;;;;;;41.21;18.22;94663.84;5195615;27;20374;-49
2021/06/29 06:06:46;;;;;;;6.78;5.85;;;;;;;41.63;17.64;94659.88;5102064;27;20442;-51
2021/06/29 06:10:00;;;;;;;8.18;6.00;;;;;;;41.76;18.00;94654.84;5030132;28;19979;-51
2021/06/29 06:13:13;;;;;;;7.75;5.70;;;;;;;41.70;18.00;94659.53;5150994;27;20370;-49
2021/06/29 06:16:14;;;;;;;8.02;5.88;;;;;;;41.70;17.89;94652.03;5128471;27;20417;-51
2021/06/29 06:19:13;;;;;;;8.23;5.93;;;;;;;42.30;17.43;94646.91;5104638;27;20325;-50
2021/06/29 06:22:26;;;;;;;7.72;6.60;;;;;;;42.07;17.96;94646.69;5151119;27;20425;-52
2021/06/29 06:25:07;;;;;;;7.00;6.28;;;;;;;41.26;18.77;94657.72;4366052;27;20964209;-49
2021/06/29 06:28:06;;;;;;;8.27;6.60;;;;;;;42.47;17.47;94662.31;5195383;27;20423;-54
2021/06/29 06:31:05;;;;;;;10.98;7.72;;;;;;;41.59;18.07;94658.09;5195373;27;20469;-51
2021/06/29 06:34:04;;;;;;;9.25;7.10;;;;;;;41.97;17.85;94659.06;5195689;27;20374;-50
2021/06/29 06:36:58;;;;;;;8.35;7.10;;;;;;;42.36;17.76;94659.44;5084467;28;20340;-51
2021/06/29 06:39:57;;;;;;;10.57;7.50;;;;;;;42.34;17.78;94658.41;5195629;27;20835;-53
2021/06/29 06:42:55;;;;;;;7.82;6.40;;;;;;;42.50;17.35;94652.34;5195045;27;20850;-51
2021/06/29 06:45:53;;;;;;;10.15;7.07;;;;;;;42.90;17.30;94648.66;5195471;27;20398;-50
2021/06/29 06:49:00;;;;;;;7.82;7.03;;;;;;;42.70;17.25;94652.25;5047107;28;20385;-52
2021/06/29 06:51:58;;;;;;;8.80;6.53;;;;;;;43.02;16.75;94649.47;5192441;27;20390;-50
2021/06/29 06:54:57;;;;;;;7.93;7.07;;;;;;;42.55;17.65;94650.88;5195574;27;20398;-51
2021/06/29 06:57:36;;;;;;;8.25;7.32;;;;;;;42.21;17.99;94649.81;4351156;27;20874180;-54
2021/06/29 07:00:35;;;;;;;8.07;7.22;;;;;;;42.87;16.88;94637.84;5133074;27;19920;-50
2021/06/29 07:03:33;;;;;;;7.97;7.18;;;;;;;43.13;17.01;94648.78;5195210;27;20386;-50
2021/06/29 07:06:47;;;;;;;8.35;6.53;;;;;;;43.42;16.36;94642.94;5150752;27;20403;-50
2021/06/29 07:09:46;;;;;;;8.77;6.55;;;;;;;43.01;16.91;94647.97;5193960;27;20398;-49
2021/06/29 07:12:47;;;;;;;8.77;6.60;;;;;;;43.45;16.71;94643.94;5128553;27;20412;-52
2021/06/29 07:15:46;;;;;;;8.02;6.63;;;;;;;42.84;17.30;94638.84;5194407;27;20888;-51
2021/06/29 07:18:53;;;;;;;8.48;7.38;;;;;;;42.83;17.46;94634.59;5134565;27;20424;-50
2021/06/29 07:21:34;;;;;;;7.25;6.00;;;;;;;43.58;16.20;94638.75;5092154;27;20380;-52
2021/06/29 07:24:16;;;;;;;8.35;6.65;;;;;;;42.89;17.05;94638.91;5096510;27;20381;-52
2021/06/29 07:26:57;;;;;;;7.78;7.07;;;;;;;43.30;16.86;94636.66;5091662;27;20389;-50
2021/06/29 07:29:38;;;;;;;7.60;6.78;;;;;;;42.91;16.76;94638.41;5071642;28;20398;-49
2021/06/29 07:32:19;;;;;;;6.82;6.15;;;;;;;43.69;16.74;94639.56;5072097;28;20386;-49
2021/06/29 07:35:02;;;;;;;7.28;6.57;;;;;;;43.64;16.72;94640.28;5112462;27;20372;-53
2021/06/29 07:37:43;;;;;;;7.40;6.40;;;;;;;43.57;16.32;94637.25;5114028;27;20128;-50
2021/06/29 07:40:25;;;;;;;8.00;6.63;;;;;;;43.61;16.27;94633.00;5071382;28;20379;-51
2021/06/29 07:43:07;;;;;;;9.50;6.95;;;;;;;43.43;16.73;94638.19;5112448;27;20392;-52
2021/06/29 07:45:49;;;;;;;7.10;6.40;;;;;;;43.37;16.82;94627.94;5091628;27;20877;-50
2021/06/29 07:48:30;;;;;;;9.73;6.00;;;;;;;43.57;16.42;94632.50;5125000;27;19922;-43
2021/06/29 07:51:11;;;;;;;11.30;6.68;;;;;;;43.76;16.26;94624.59;5072090;28;20394;-51
2021/06/29 07:53:52;;;;;;;11.90;6.72;;;;;;;43.90;16.55;94620.84;5111695;27;20387;-56
2021/06/29 07:56:37;;;;;;;8.38;6.15;;;;;;;43.76;15.84;94621.09;5071620;28;20394;-62
2021/06/29 07:59:18;;;;;;;7.50;6.38;;;;;;;43.47;16.36;94611.97;5091774;27;20397;-52
2021/06/29 08:02:00;;;;;;;7.78;6.50;;;;;;;44.23;16.12;94619.41;5112490;27;20387;-55
2021/06/29 08:04:43;;;;;;;8.27;6.78;;;;;;;44.02;16.19;94609.88;5104626;27;20388;-70
2021/06/29 08:07:27;;;;;;;9.93;6.05;;;;;;;43.72;16.58;94612.28;5091296;28;20404;-70
2021/06/29 08:10:09;;;;;;;7.95;6.25;;;;;;;43.01;17.28;94613.00;5090998;27;20389;-70
2021/06/29 08:12:51;;;;;;;11.50;7.03;;;;;;;42.87;17.48;94610.38;5112436;27;20857;-70
2021/06/29 08:15:32;;;;;;;7.25;6.55;;;;;;;42.94;17.74;94604.44;5091929;27;20386;-70
2021/06/29 08:18:16;;;;;;;8.30;6.47;;;;;;;42.83;16.83;94605.09;5071659;28;20192;-70
2021/06/29 08:20:58;;;;;;;9.65;7.18;;;;;;;42.94;17.23;94604.44;5092299;27;20381;-71
2021/06/29 08:23:39;;;;;;;9.07;6.65;;;;;;;43.46;16.67;94604.19;5092109;27;20852;-71
2021/06/29 08:26:22;;;;;;;9.85;6.90;;;;;;;43.23;16.93;94609.59;5112287;27;20706;-71
2021/06/29 08:29:03;;;;;;;9.30;6.43;;;;;;;43.61;16.65;94602.75;5112143;27;20391;-71
2021/06/29 08:31:45;;;;;;;7.18;6.43;;;;;;;43.53;16.61;94603.72;5072009;28;20412;-70
2021/06/29 08:34:27;;;;;;;11.20;6.78;;;;;;;43.80;16.56;94605.81;5112616;27;20174;-70
2021/06/29 08:37:08;;;;;;;7.35;6.18;;;;;;;43.50;16.47;94599.22;5090242;27;20389;-70
2021/06/29 08:39:50;;;;;;;9.27;6.78;;;;;;;43.18;16.67;94601.31;5070460;28;20914;-71
2021/06/29 08:42:34;;;;;;;6.82;6.13;;;;;;;43.63;16.32;94599.50;5092202;27;20377;-70
2021/06/29 08:45:16;;;;;;;9.40;6.20;;;;;;;43.11;16.27;94597.03;5092229;28;20685;-70
2021/06/29 08:47:57;;;;;;;8.40;6.40;;;;;;;43.32;15.90;94590.16;5091763;28;20389;-70
2021/06/29 08:50:42;;;;;;;7.20;6.20;;;;;;;43.53;16.30;94585.22;5092158;27;20680;-70
2021/06/29 08:53:23;;;;;;;8.25;6.40;;;;;;;43.75;16.34;94581.81;5092260;27;20379;-70
2021/06/29 08:56:04;;;;;;;6.85;6.15;;;;;;;43.81;16.31;94579.81;5071816;28;20860;-70
2021/06/29 08:58:46;;;;;;;9.55;6.53;;;;;;;43.81;16.19;94585.31;5071626;28;20868;-70
2021/06/29 09:01:28;;;;;;;7.07;6.47;;;;;;;43.97;15.61;94572.78;5133263;27;19916;-71
2021/06/29 09:04:10;;;;;;;7.45;6.53;;;;;;;43.44;15.97;94571.66;5112605;27;20861;-70
2021/06/29 09:06:51;;;;;;;7.10;6.40;;;;;;;43.39;16.09;94569.66;5091678;28;20384;-71
2021/06/29 09:09:34;;;;;;;8.52;6.60;;;;;;;43.77;16.14;94562.78;5071605;28;20386;-72
2021/06/29 09:12:21;;;;;;;7.50;6.40;;;;;;;44.16;16.58;94567.59;5070834;28;20733;-71
2021/06/29 09:15:33;;;;;;;8.68;6.93;;;;;;;43.78;16.17;94569.78;5078862;27;20387;-71
2021/06/29 09:18:21;;;;;;;13.30;10.40;;;;;;;43.86;15.93;94559.03;5071595;28;20383;-71
2021/06/29 09:21:10;;;;;;;8.18;6.80;;;;;;;44.28;15.72;94563.59;5133052;27;20197;-70
2021/06/29 09:23:52;;;;;;;8.93;7.22;;;;;;;43.84;15.99;94556.78;5071993;28;20911;-70
2021/06/29 09:26:39;;;;;;;9.48;7.35;;;;;;;44.08;15.80;94552.81;5124792;27;20412;-71
2021/06/29 09:29:34;;;;;;;8.73;7.10;;;;;;;44.27;16.39;94551.06;5091833;27;20381;-70
2021/06/29 09:32:20;;;;;;;8.35;6.72;;;;;;;44.41;16.53;94547.28;5091642;28;20892;-71
2021/06/29 09:35:08;;;;;;;7.75;6.90;;;;;;;44.24;16.17;94549.28;5071734;28;20382;-72
2021/06/29 09:37:49;;;;;;;8.13;6.80;;;;;;;44.62;16.05;94549.78;5071170;28;20379;-71
2021/06/29 09:40:32;;;;;;;8.13;6.30;;;;;;;44.58;15.91;94541.78;5133182;27;19916;-72
2021/06/29 09:43:15;;;;;;;7.15;6.55;;;;;;;44.63;15.96;94556.78;5092371;28;20395;-71
2021/06/29 09:46:00;;;;;;;7.22;5.95;;;;;;;44.78;15.40;94544.25;5071634;28;20759;-72
2021/06/29 09:48:45;;;;;;;8.77;6.63;;;;;;;44.39;16.33;94538.78;5127437;27;20182;-71
2021/06/29 09:51:30;;;;;;;10.40;7.28;;;;;;;44.68;15.93;94548.50;5112641;27;20395;-72
2021/06/29 09:54:13;;;;;;;10.50;6.95;;;;;;;44.93;16.29;94546.72;5091113;27;20388;-72
2021/06/29 09:56:54;;;;;;;7.25;6.55;;;;;;;44.61;15.95;94534.50;5092252;28;20381;-71
2021/06/29 09:59:43;;;;;;;9.93;6.80;;;;;;;44.52;15.53;94536.28;5112397;27;20372;-72
2021/06/29 10:02:31;;;;;;;10.00;7.32;;;;;;;44.62;15.98;94533.25;5133183;27;20240;-72
2021/06/29 10:05:24;;;;;;;10.00;6.93;;;;;;;44.25;16.39;94528.78;5132796;27;20395;-71
2021/06/29 10:08:06;;;;;;;7.88;7.07;;;;;;;44.58;16.18;94539.78;5112175;27;20376;-72
2021/06/29 10:10:47;;;;;;;9.75;7.40;;;;;;;44.69;16.30;94532.72;5112549;27;20388;-72
2021/06/29 10:13:36;;;;;;;9.60;7.50;;;;;;;44.84;16.28;94533.19;5071987;28;20682;-73
2021/06/29 10:16:22;;;;;;;8.00;7.30;;;;;;;44.73;16.09;94517.41;5072100;28;20392;-73
2021/06/29 10:19:15;;;;;;;10.80;8.10;;;;;;;44.37;16.58;94513.72;5112164;27;20706;-72
2021/06/29 10:21:59;;;;;;;8.13;6.78;;;;;;;44.38;15.96;94517.97;5112587;27;20853;-72
2021/06/29 10:24:43;;;;;;;7.15;6.50;;;;;;;44.55;15.57;94513.22;5071771;28;20378;-73
2021/06/29 10:27:24;;;;;;;8.20;7.38;;;;;;;44.78;15.38;94515.91;5071852;28;20389;-72
2021/06/29 10:30:07;;;;;;;8.00;6.95;;;;;;;44.64;16.86;94503.19;5071745;28;20382;-72
2021/06/29 10:32:47;;;;;;;7.80;7.00;;;;;;;44.40;16.75;94512.72;5072179;28;20411;-72
2021/06/29 10:35:29;;;;;;;7.88;7.07;;;;;;;44.33;15.84;94513.25;5112351;27;20380;-73
2021/06/29 10:38:11;;;;;;;7.68;6.88;;;;;;;44.96;15.32;94511.84;5140163;27;20139;-72
2021/06/29 10:40:52;;;;;;;8.30;6.53;;;;;;;44.13;15.88;94502.50;5071413;28;20390;-72
2021/06/29 10:43:38;;;;;;;8.63;7.15;;;;;;;44.19;15.54;94492.97;5112424;27;20388;-72
2021/06/29 10:46:28;;;;;;;8.80;6.88;;;;;;;44.37;15.47;94496.44;5071735;28;20389;-72
2021/06/29 10:49:29;;;;;;;7.97;6.65;;;;;;;44.03;15.49;94485.47;5070974;28;20688;-72
2021/06/29 10:52:26;;;;;;;7.93;7.03;;;;;;;44.42;15.71;94488.16;5092193;28;20385;-72
2021/06/29 10:55:24;;;;;;;8.20;6.85;;;;;;;44.38;16.00;94482.16;5091876;28;20385;-71
2021/06/29 10:58:05;;;;;;;7.85;7.13;;;;;;;44.56;16.18;94481.66;5071905;27;20860;-72
2021/06/29 11:00:47;;;;;;;7.72;7.03;;;;;;;44.69;15.96;94472.84;5071768;28;20404;-73
2021/06/29 11:03:38;;;;;;;8.00;7.22;;;;;;;44.87;15.72;94475.06;5092285;28;20396;-73
2021/06/29 11:06:46;;;;;;;9.65;6.63;;;;;;;45.08;15.48;94464.44;5118460;27;20202;-70
2021/06/29 11:09:53;;;;;;;8.30;7.03;;;;;;;44.42;15.92;94466.13;5070368;28;20487;-67
2021/06/29 11:12:35;;;;;;;12.65;6.80;;;;;;;44.80;15.86;94456.25;5112590;27;20857;-72
2021/06/29 11:15:17;;;;;;;7.05;6.30;;;;;;;44.62;16.53;94454.06;5122792;27;19916;-70
2021/06/29 11:18:00;;;;;;;14.98;7.05;;;;;;;44.77;16.21;94451.03;5071894;28;20375;-56
2021/06/29 11:20:48;;;;;;;9.30;6.55;;;;;;;45.06;15.09;94455.91;5071767;28;20405;-50
2021/06/29 11:23:31;;;;;;;8.65;6.90;;;;;;;44.86;15.45;94454.25;5092264;27;20393;-65
2021/06/29 11:26:11;;;;;;;12.02;7.78;;;;;;;44.97;15.89;94445.16;5112275;27;20380;-67
2021/06/29 11:29:02;;;;;;;8.57;7.32;;;;;;;45.16;15.73;94443.31;5112409;27;20392;-51
2021/06/29 11:31:44;;;;;;;12.85;8.00;;;;;;;44.99;16.01;94445.41;5091809;28;20388;-55
2021/06/29 11:34:29;;;;;;;8.68;7.70;;;;;;;45.10;16.40;94439.84;5130929;27;20120;-50
2021/06/29 11:37:10;;;;;;;8.02;7.22;;;;;;;45.04;15.77;94444.66;5110992;27;20388;-54
2021/06/29 11:39:59;;;;;;;7.40;6.75;;;;;;;45.14;15.51;94434.81;5092214;27;20388;-53
2021/06/29 11:42:41;;;;;;;7.20;6.55;;;;;;;45.12;15.19;94442.09;5092333;27;20389;-51
2021/06/29 11:45:31;;;;;;;9.55;6.60;;;;;;;45.17;14.82;94433.03;5102552;27;20898;-55
2021/06/29 11:48:40;;;;;;;7.15;6.45;;;;;;;44.97;14.83;94442.41;5091972;27;20416;-61
2021/06/29 11:51:55;;;;;;;8.57;7.20;;;;;;;44.69;15.06;94433.50;5133089;27;20433;-60
2021/06/29 11:54:43;;;;;;;8.95;7.15;;;;;;;44.85;15.26;94432.69;5109516;27;20129;-56
2021/06/29 11:57:35;;;;;;;7.85;6.95;;;;;;;44.85;15.31;94430.69;5133172;27;20392;-56
2021/06/29 12:00:32;;;;;;;9.35;6.63;;;;;;;44.76;15.49;94421.94;5091977;28;20404;-56
2021/06/29 12:03:19;;;;;;;7.75;5.95;;;;;;;44.81;14.14;94430.19;5092069;28;20179;-62
2021/06/29 12:06:02;;;;;;;6.93;5.95;;;;;;;44.71;14.59;94419.94;5091129;28;20179;-55
2021/06/29 12:08:42;;;;;;;7.22;6.50;;;;;;;45.15;14.55;94419.75;5091279;28;20888;-54
2021/06/29 12:11:24;;;;;;;6.93;5.88;;;;;;;44.90;14.75;94420.91;5092087;27;20377;-54
2021/06/29 12:14:19;;;;;;;8.52;6.78;;;;;;;45.00;14.56;94411.06;5133229;27;19916;-54
2021/06/29 12:17:01;;;;;;;7.03;6.28;;;;;;;44.59;15.20;94411.75;5071724;28;20394;-54
2021/06/29 12:19:43;;;;;;;10.20;6.75;;;;;;;44.64;15.28;94401.19;5091616;27;20385;-53
2021/06/29 12:22:32;;;;;;;8.40;6.35;;;;;;;44.91;15.12;94416.88;5091795;27;20377;-55
2021/06/29 12:25:34;;;;;;;7.55;6.38;;;;;;;45.06;14.10;94413.81;5071623;28;20409;-54
2021/06/29 12:28:22;;;;;;;7.72;6.63;;;;;;;44.67;14.33;94411.22;5071474;28;20393;-53
2021/06/29 12:31:08;;;;;;;8.20;7.32;;;;;;;44.55;14.45;94414.03;5112276;27;20903;-56
2021/06/29 12:33:50;;;;;;;7.82;6.38;;;;;;;44.32;14.84;94411.81;5071925;28;20393;-54
2021/06/29 12:36:32;;;;;;;7.43;6.68;;;;;;;44.76;14.21;94397.13;5122955;27;19926;-57
2021/06/29 12:39:14;;;;;;;6.80;6.20;;;;;;;44.78;14.43;94400.16;5070346;28;20398;-54
2021/06/29 12:41:55;;;;;;;7.47;6.50;;;;;;;45.26;14.18;94396.13;5111917;27;20880;-54
2021/06/29 12:44:36;;;;;;;13.88;7.50;;;;;;;45.02;14.89;94399.50;5091688;27;20370;-53
2021/06/29 12:47:19;;;;;;;7.78;7.05;;;;;;;44.89;14.83;94389.81;5153721;27;20503;-53
2021/06/29 12:49:59;;;;;;;7.93;6.80;;;;;;;44.89;14.86;94389.06;5092311;27;20385;-56
2021/06/29 12:52:41;;;;;;;9.30;6.97;;;;;;;44.91;14.50;94383.78;5112683;27;20380;-55
2021/06/29 12:55:23;;;;;;;9.32;6.93;;;;;;;45.34;14.71;94386.06;5112116;27;20388;-54
2021/06/29 12:58:08;;;;;;;10.10;6.80;;;;;;;45.00;14.57;94377.97;5092021;27;20688;-54
2021/06/29 13:00:52;;;;;;;7.45;6.68;;;;;;;45.04;14.76;94381.22;5112555;27;20379;-55
2021/06/29 13:03:37;;;;;;;6.97;6.38;;;;;;;45.27;14.26;94372.78;5071601;28;20398;-55
2021/06/29 13:06:22;;;;;;;7.05;6.40;;;;;;;44.67;14.65;94367.09;5091565;27;20381;-56
2021/06/29 13:09:09;;;;;;;7.45;6.43;;;;;;;44.65;14.65;94375.13;5071570;28;20386;-54
2021/06/29 13:11:56;;;;;;;10.55;7.47;;;;;;;44.69;14.45;94362.59;5071799;28;20416;-54
2021/06/29 13:14:38;;;;;;;8.05;7.25;;;;;;;44.66;14.15;94362.84;5132687;27;20185;-54
2021/06/29 13:17:20;;;;;;;8.20;7.40;;;;;;;44.49;14.86;94366.44;5112424;27;20380;-56
2021/06/29 13:20:09;;;;;;;9.10;7.55;;;;;;;44.67;14.82;94359.59;5111239;27;20880;-52
2021/06/29 13:22:54;;;;;;;7.97;7.18;;;;;;;44.44;15.18;94350.66;5047079;28;20384;-51
2021/06/29 13:25:36;;;;;;;8.07;7.25;;;;;;;44.37;14.71;94353.94;5090449;27;21031;-54
2021/06/29 13:28:19;;;;;;;7.43;6.82;;;;;;;44.21;15.06;94354.75;5071239;28;20393;-53
2021/06/29 13:31:03;;;;;;;8.57;7.45;;;;;;;44.61;14.51;94349.84;5112542;27;20384;-54
2021/06/29 13:33:43;;;;;;;7.97;7.07;;;;;;;44.72;14.66;94347.78;5112315;27;20392;-51
2021/06/29 13:36:29;;;;;;;8.02;7.22;;;;;;;44.39;14.74;94340.41;5071396;28;20390;-53